sensor_id;sensor_type;location;lat;lon;timestamp;P1;durP1;ratioP1;P2;durP2;ratioP2
15677;SDS011;7939;50.814;6.368;2023-12-29T00:00:00;4.63;;;1.50;;
15677;SDS011;7939;50.814;6.368;2023-12-29T00:02:29;5.65;;;1.60;;
15677;SDS011;7939;50.814;6.368;2023-12-29T00:04:56;2.00;;;1.50;;
15677;SDS011;7939;50.814;6.368;2023-12-29T00:07:22;4.28;;;1.77;;
15677;SDS011;7939;50.814;6.368;2023-12-29T00:09:49;7.05;;;1.58;;
15677;SDS011;7939;50.814;6.368;2023-12-29T00:12:16;5.50;;;2.17;;
15677;SDS011;7939;50.814;6.368;2023-12-29T00:14:42;2.45;;;1.63;;
15677;SDS011;7939;50.814;6.368;2023-12-29T00:17:09;4.97;;;1.67;;
15677;SDS011;7939;50.814;6.368;2023-12-29T00:19:37;4.95;;;2.05;;
15677;SDS011;7939;50.814;6.368;2023-12-29T00:22:04;4.40;;;1.65;;
15677;SDS011;7939;50.814;6.368;2023-12-29T00:24:31;3.00;;;1.50;;
15677;SDS011;7939;50.814;6.368;2023-12-29T00:26:58;5.30;;;1.95;;
15677;SDS011;7939;50.814;6.368;2023-12-29T00:29:25;7.10;;;1.92;;
15677;SDS011;7939;50.814;6.368;2023-12-29T00:31:57;2.75;;;1.45;;
15677;SDS011;7939;50.814;6.368;2023-12-29T00:34:25;3.42;;;1.73;;
15677;SDS011;7939;50.814;6.368;2023-12-29T00:36:53;8.93;;;2.05;;
15677;SDS011;7939;50.814;6.368;2023-12-29T00:39:20;4.05;;;1.52;;
15677;SDS011;7939;50.814;6.368;2023-12-29T00:41:53;5.88;;;1.40;;
15677;SDS011;7939;50.814;6.368;2023-12-29T00:44:20;4.47;;;1.60;;
15677;SDS011;7939;50.814;6.368;2023-12-29T00:46:47;3.58;;;2.00;;
15677;SDS011;7939;50.814;6.368;2023-12-29T00:49:14;2.70;;;1.75;;
15677;SDS011;7939;50.814;6.368;2023-12-29T00:51:40;3.20;;;1.80;;
15677;SDS011;7939;50.814;6.368;2023-12-29T00:54:08;5.05;;;1.80;;
15677;SDS011;7939;50.814;6.368;2023-12-29T00:56:35;4.13;;;1.90;;
15677;SDS011;7939;50.814;6.368;2023-12-29T00:59:02;3.22;;;1.75;;
15677;SDS011;7939;50.814;6.368;2023-12-29T01:01:32;6.00;;;1.75;;
15677;SDS011;7939;50.814;6.368;2023-12-29T01:03:59;4.07;;;2.03;;
15677;SDS011;7939;50.814;6.368;2023-12-29T01:06:26;2.88;;;1.38;;
15677;SDS011;7939;50.814;6.368;2023-12-29T01:08:53;3.58;;;1.50;;
15677;SDS011;7939;50.814;6.368;2023-12-29T01:11:21;6.93;;;1.42;;
15677;SDS011;7939;50.814;6.368;2023-12-29T01:13:48;5.60;;;1.75;;
15677;SDS011;7939;50.814;6.368;2023-12-29T01:16:14;4.20;;;2.47;;
15677;SDS011;7939;50.814;6.368;2023-12-29T01:18:41;2.65;;;1.73;;
15677;SDS011;7939;50.814;6.368;2023-12-29T01:21:08;4.80;;;1.90;;
15677;SDS011;7939;50.814;6.368;2023-12-29T01:23:35;5.68;;;2.00;;
15677;SDS011;7939;50.814;6.368;2023-12-29T01:26:01;6.00;;;2.65;;
15677;SDS011;7939;50.814;6.368;2023-12-29T01:28:30;5.25;;;2.10;;
15677;SDS011;7939;50.814;6.368;2023-12-29T01:30:57;6.30;;;2.13;;
15677;SDS011;7939;50.814;6.368;2023-12-29T01:33:23;4.65;;;1.80;;
15677;SDS011;7939;50.814;6.368;2023-12-29T01:35:50;4.88;;;2.15;;
15677;SDS011;7939;50.814;6.368;2023-12-29T01:38:17;2.80;;;1.55;;
15677;SDS011;7939;50.814;6.368;2023-12-29T01:40:43;8.25;;;2.20;;
15677;SDS011;7939;50.814;6.368;2023-12-29T01:43:10;8.07;;;2.42;;
15677;SDS011;7939;50.814;6.368;2023-12-29T01:45:38;5.05;;;2.00;;
15677;SDS011;7939;50.814;6.368;2023-12-29T01:48:06;4.93;;;2.03;;
15677;SDS011;7939;50.814;6.368;2023-12-29T01:50:34;7.93;;;2.10;;
15677;SDS011;7939;50.814;6.368;2023-12-29T01:53:01;2.15;;;1.70;;
15677;SDS011;7939;50.814;6.368;2023-12-29T01:55:31;8.35;;;2.10;;
15677;SDS011;7939;50.814;6.368;2023-12-29T01:57:58;7.88;;;1.95;;
15677;SDS011;7939;50.814;6.368;2023-12-29T02:00:25;4.20;;;1.80;;
15677;SDS011;7939;50.814;6.368;2023-12-29T02:02:54;4.00;;;1.98;;
15677;SDS011;7939;50.814;6.368;2023-12-29T02:05:20;3.03;;;1.65;;
15677;SDS011;7939;50.814;6.368;2023-12-29T02:07:51;7.20;;;1.77;;
15677;SDS011;7939;50.814;6.368;2023-12-29T02:10:20;6.47;;;2.13;;
15677;SDS011;7939;50.814;6.368;2023-12-29T02:12:47;4.45;;;1.75;;
15677;SDS011;7939;50.814;6.368;2023-12-29T02:15:15;7.40;;;2.15;;
15677;SDS011;7939;50.814;6.368;2023-12-29T02:17:43;3.80;;;1.85;;
15677;SDS011;7939;50.814;6.368;2023-12-29T02:20:15;3.15;;;1.90;;
15677;SDS011;7939;50.814;6.368;2023-12-29T02:22:42;7.80;;;2.00;;
15677;SDS011;7939;50.814;6.368;2023-12-29T02:25:10;5.18;;;1.85;;
15677;SDS011;7939;50.814;6.368;2023-12-29T02:27:41;3.58;;;2.08;;
15677;SDS011;7939;50.814;6.368;2023-12-29T02:30:17;4.10;;;2.05;;
15677;SDS011;7939;50.814;6.368;2023-12-29T02:32:48;3.33;;;1.77;;
15677;SDS011;7939;50.814;6.368;2023-12-29T02:35:19;3.15;;;1.77;;
15677;SDS011;7939;50.814;6.368;2023-12-29T02:37:49;5.95;;;1.90;;
15677;SDS011;7939;50.814;6.368;2023-12-29T02:40:17;4.40;;;1.67;;
15677;SDS011;7939;50.814;6.368;2023-12-29T02:42:45;5.72;;;2.22;;
15677;SDS011;7939;50.814;6.368;2023-12-29T02:45:13;5.47;;;2.20;;
15677;SDS011;7939;50.814;6.368;2023-12-29T02:47:40;5.57;;;2.05;;
15677;SDS011;7939;50.814;6.368;2023-12-29T02:50:08;4.97;;;2.10;;
15677;SDS011;7939;50.814;6.368;2023-12-29T02:52:35;3.55;;;1.80;;
15677;SDS011;7939;50.814;6.368;2023-12-29T02:55:02;8.43;;;2.25;;
15677;SDS011;7939;50.814;6.368;2023-12-29T02:57:30;9.15;;;2.60;;
15677;SDS011;7939;50.814;6.368;2023-12-29T02:59:57;3.45;;;1.60;;
15677;SDS011;7939;50.814;6.368;2023-12-29T03:02:24;6.25;;;1.83;;
15677;SDS011;7939;50.814;6.368;2023-12-29T03:04:51;8.27;;;1.85;;
15677;SDS011;7939;50.814;6.368;2023-12-29T03:07:17;3.60;;;1.70;;
15677;SDS011;7939;50.814;6.368;2023-12-29T03:09:44;4.95;;;1.80;;
15677;SDS011;7939;50.814;6.368;2023-12-29T03:12:11;5.25;;;1.98;;
15677;SDS011;7939;50.814;6.368;2023-12-29T03:14:39;5.28;;;1.90;;
15677;SDS011;7939;50.814;6.368;2023-12-29T03:17:05;5.38;;;1.60;;
15677;SDS011;7939;50.814;6.368;2023-12-29T03:19:32;3.58;;;1.67;;
15677;SDS011;7939;50.814;6.368;2023-12-29T03:21:59;4.35;;;1.75;;
15677;SDS011;7939;50.814;6.368;2023-12-29T03:24:25;6.00;;;2.65;;
15677;SDS011;7939;50.814;6.368;2023-12-29T03:26:52;3.58;;;1.60;;
15677;SDS011;7939;50.814;6.368;2023-12-29T03:29:19;6.00;;;1.85;;
15677;SDS011;7939;50.814;6.368;2023-12-29T03:31:48;7.03;;;1.73;;
15677;SDS011;7939;50.814;6.368;2023-12-29T03:34:15;8.68;;;2.38;;
15677;SDS011;7939;50.814;6.368;2023-12-29T03:36:42;4.95;;;1.63;;
15677;SDS011;7939;50.814;6.368;2023-12-29T03:39:08;10.82;;;2.30;;
15677;SDS011;7939;50.814;6.368;2023-12-29T03:41:35;3.67;;;1.60;;
15677;SDS011;7939;50.814;6.368;2023-12-29T03:44:02;4.55;;;1.90;;
15677;SDS011;7939;50.814;6.368;2023-12-29T03:46:28;5.13;;;2.00;;
15677;SDS011;7939;50.814;6.368;2023-12-29T03:48:57;4.40;;;2.22;;
15677;SDS011;7939;50.814;6.368;2023-12-29T03:51:23;5.70;;;1.70;;
15677;SDS011;7939;50.814;6.368;2023-12-29T03:53:50;4.32;;;1.50;;
15677;SDS011;7939;50.814;6.368;2023-12-29T03:56:17;6.30;;;2.55;;
15677;SDS011;7939;50.814;6.368;2023-12-29T03:58:44;3.97;;;1.58;;
15677;SDS011;7939;50.814;6.368;2023-12-29T04:01:12;7.57;;;1.63;;
15677;SDS011;7939;50.814;6.368;2023-12-29T04:03:39;4.85;;;1.77;;
15677;SDS011;7939;50.814;6.368;2023-12-29T04:06:08;4.38;;;1.70;;
15677;SDS011;7939;50.814;6.368;2023-12-29T04:08:35;4.75;;;1.65;;
15677;SDS011;7939;50.814;6.368;2023-12-29T04:11:03;6.80;;;1.90;;
15677;SDS011;7939;50.814;6.368;2023-12-29T04:13:30;4.82;;;1.73;;
15677;SDS011;7939;50.814;6.368;2023-12-29T04:15:57;2.38;;;1.25;;
15677;SDS011;7939;50.814;6.368;2023-12-29T04:18:23;6.90;;;1.85;;
15677;SDS011;7939;50.814;6.368;2023-12-29T04:20:50;3.88;;;1.55;;
15677;SDS011;7939;50.814;6.368;2023-12-29T04:23:19;4.53;;;1.75;;
15677;SDS011;7939;50.814;6.368;2023-12-29T04:25:45;3.70;;;1.55;;
15677;SDS011;7939;50.814;6.368;2023-12-29T04:28:12;4.70;;;2.17;;
15677;SDS011;7939;50.814;6.368;2023-12-29T04:30:39;4.32;;;1.60;;
15677;SDS011;7939;50.814;6.368;2023-12-29T04:33:05;5.45;;;1.60;;
15677;SDS011;7939;50.814;6.368;2023-12-29T04:35:32;4.00;;;1.55;;
15677;SDS011;7939;50.814;6.368;2023-12-29T04:37:59;8.23;;;1.70;;
15677;SDS011;7939;50.814;6.368;2023-12-29T04:40:27;8.25;;;1.58;;
15677;SDS011;7939;50.814;6.368;2023-12-29T04:42:53;4.85;;;1.73;;
15677;SDS011;7939;50.814;6.368;2023-12-29T04:45:20;3.88;;;1.70;;
15677;SDS011;7939;50.814;6.368;2023-12-29T04:47:47;4.40;;;1.42;;
15677;SDS011;7939;50.814;6.368;2023-12-29T04:50:14;4.93;;;1.73;;
15677;SDS011;7939;50.814;6.368;2023-12-29T04:52:41;4.88;;;1.40;;
15677;SDS011;7939;50.814;6.368;2023-12-29T04:55:07;3.72;;;1.60;;
15677;SDS011;7939;50.814;6.368;2023-12-29T04:57:36;4.80;;;1.73;;
15677;SDS011;7939;50.814;6.368;2023-12-29T05:00:03;8.05;;;2.03;;
15677;SDS011;7939;50.814;6.368;2023-12-29T05:02:30;6.93;;;1.88;;
15677;SDS011;7939;50.814;6.368;2023-12-29T05:04:57;3.80;;;1.38;;
15677;SDS011;7939;50.814;6.368;2023-12-29T05:07:24;3.70;;;1.23;;
15677;SDS011;7939;50.814;6.368;2023-12-29T05:09:51;4.82;;;1.60;;
15677;SDS011;7939;50.814;6.368;2023-12-29T05:12:17;5.85;;;1.85;;
15677;SDS011;7939;50.814;6.368;2023-12-29T05:14:45;3.70;;;1.63;;
15677;SDS011;7939;50.814;6.368;2023-12-29T05:17:12;3.78;;;1.73;;
15677;SDS011;7939;50.814;6.368;2023-12-29T05:19:39;6.55;;;1.95;;
15677;SDS011;7939;50.814;6.368;2023-12-29T05:22:06;7.97;;;1.70;;
15677;SDS011;7939;50.814;6.368;2023-12-29T05:24:33;5.18;;;1.33;;
15677;SDS011;7939;50.814;6.368;2023-12-29T05:26:59;3.53;;;1.73;;
15677;SDS011;7939;50.814;6.368;2023-12-29T05:29:26;5.70;;;1.50;;
15677;SDS011;7939;50.814;6.368;2023-12-29T05:31:55;2.38;;;1.48;;
15677;SDS011;7939;50.814;6.368;2023-12-29T05:34:21;2.38;;;1.30;;
15677;SDS011;7939;50.814;6.368;2023-12-29T05:36:48;2.65;;;1.65;;
15677;SDS011;7939;50.814;6.368;2023-12-29T05:39:15;4.30;;;1.45;;
15677;SDS011;7939;50.814;6.368;2023-12-29T05:41:41;5.05;;;2.08;;
15677;SDS011;7939;50.814;6.368;2023-12-29T05:44:08;4.07;;;1.50;;
15677;SDS011;7939;50.814;6.368;2023-12-29T05:46:35;4.25;;;1.48;;
15677;SDS011;7939;50.814;6.368;2023-12-29T05:49:03;2.20;;;1.38;;
15677;SDS011;7939;50.814;6.368;2023-12-29T05:51:30;3.95;;;1.27;;
15677;SDS011;7939;50.814;6.368;2023-12-29T05:53:56;4.10;;;1.60;;
15677;SDS011;7939;50.814;6.368;2023-12-29T05:56:23;4.72;;;2.15;;
15677;SDS011;7939;50.814;6.368;2023-12-29T05:58:50;4.15;;;1.70;;
15677;SDS011;7939;50.814;6.368;2023-12-29T06:01:16;3.55;;;1.63;;
15677;SDS011;7939;50.814;6.368;2023-12-29T06:03:43;5.55;;;1.40;;
15677;SDS011;7939;50.814;6.368;2023-12-29T06:06:11;5.38;;;1.38;;
15677;SDS011;7939;50.814;6.368;2023-12-29T06:08:38;5.05;;;1.50;;
15677;SDS011;7939;50.814;6.368;2023-12-29T06:11:05;3.53;;;1.30;;
15677;SDS011;7939;50.814;6.368;2023-12-29T06:13:31;4.80;;;1.48;;
15677;SDS011;7939;50.814;6.368;2023-12-29T06:15:58;5.55;;;1.42;;
15677;SDS011;7939;50.814;6.368;2023-12-29T06:18:25;3.17;;;1.40;;
15677;SDS011;7939;50.814;6.368;2023-12-29T06:20:52;5.90;;;1.50;;
15677;SDS011;7939;50.814;6.368;2023-12-29T06:23:20;6.70;;;1.40;;
15677;SDS011;7939;50.814;6.368;2023-12-29T06:25:46;4.63;;;1.27;;
15677;SDS011;7939;50.814;6.368;2023-12-29T06:28:13;5.65;;;1.50;;
15677;SDS011;7939;50.814;6.368;2023-12-29T06:30:40;3.55;;;1.63;;
15677;SDS011;7939;50.814;6.368;2023-12-29T06:33:06;7.25;;;1.80;;
15677;SDS011;7939;50.814;6.368;2023-12-29T06:35:33;4.05;;;1.55;;
15677;SDS011;7939;50.814;6.368;2023-12-29T06:38:00;8.07;;;1.63;;
15677;SDS011;7939;50.814;6.368;2023-12-29T06:40:28;4.85;;;1.48;;
15677;SDS011;7939;50.814;6.368;2023-12-29T06:42:55;4.28;;;1.45;;
15677;SDS011;7939;50.814;6.368;2023-12-29T06:45:22;1.60;;;1.13;;
15677;SDS011;7939;50.814;6.368;2023-12-29T06:47:48;4.88;;;1.33;;
15677;SDS011;7939;50.814;6.368;2023-12-29T06:50:15;2.97;;;1.30;;
15677;SDS011;7939;50.814;6.368;2023-12-29T06:52:42;4.10;;;1.13;;
15677;SDS011;7939;50.814;6.368;2023-12-29T06:55:08;2.65;;;1.40;;
15677;SDS011;7939;50.814;6.368;2023-12-29T06:57:37;5.38;;;1.50;;
15677;SDS011;7939;50.814;6.368;2023-12-29T07:00:04;3.75;;;1.33;;
15677;SDS011;7939;50.814;6.368;2023-12-29T07:02:32;3.63;;;1.25;;
15677;SDS011;7939;50.814;6.368;2023-12-29T07:04:59;2.97;;;1.45;;
15677;SDS011;7939;50.814;6.368;2023-12-29T07:07:26;2.85;;;1.15;;
15677;SDS011;7939;50.814;6.368;2023-12-29T07:09:53;2.70;;;1.15;;
15677;SDS011;7939;50.814;6.368;2023-12-29T07:12:19;4.35;;;1.60;;
15677;SDS011;7939;50.814;6.368;2023-12-29T07:14:48;5.22;;;1.60;;
15677;SDS011;7939;50.814;6.368;2023-12-29T07:17:14;3.15;;;1.00;;
15677;SDS011;7939;50.814;6.368;2023-12-29T07:19:41;4.13;;;1.38;;
15677;SDS011;7939;50.814;6.368;2023-12-29T07:22:08;5.15;;;1.30;;
15677;SDS011;7939;50.814;6.368;2023-12-29T07:24:35;3.58;;;1.30;;
15677;SDS011;7939;50.814;6.368;2023-12-29T07:27:02;4.00;;;1.40;;
15677;SDS011;7939;50.814;6.368;2023-12-29T07:29:29;5.80;;;1.90;;
15677;SDS011;7939;50.814;6.368;2023-12-29T07:31:57;4.18;;;1.95;;
15677;SDS011;7939;50.814;6.368;2023-12-29T07:34:24;3.65;;;1.52;;
15677;SDS011;7939;50.814;6.368;2023-12-29T07:36:51;3.10;;;1.45;;
15677;SDS011;7939;50.814;6.368;2023-12-29T07:39:18;5.65;;;1.55;;
15677;SDS011;7939;50.814;6.368;2023-12-29T07:41:45;3.17;;;1.52;;
15677;SDS011;7939;50.814;6.368;2023-12-29T07:44:13;2.58;;;1.42;;
15677;SDS011;7939;50.814;6.368;2023-12-29T07:46:40;4.85;;;1.65;;
15677;SDS011;7939;50.814;6.368;2023-12-29T07:49:08;3.45;;;1.42;;
15677;SDS011;7939;50.814;6.368;2023-12-29T07:51:38;6.22;;;1.35;;
15677;SDS011;7939;50.814;6.368;2023-12-29T07:54:06;1.20;;;1.10;;
15677;SDS011;7939;50.814;6.368;2023-12-29T07:56:32;5.93;;;1.60;;
15677;SDS011;7939;50.814;6.368;2023-12-29T07:58:59;5.00;;;1.70;;
15677;SDS011;7939;50.814;6.368;2023-12-29T08:01:26;3.45;;;1.60;;
15677;SDS011;7939;50.814;6.368;2023-12-29T08:03:53;3.08;;;1.20;;
15677;SDS011;7939;50.814;6.368;2023-12-29T08:06:21;2.67;;;1.20;;
15677;SDS011;7939;50.814;6.368;2023-12-29T08:08:48;5.85;;;1.90;;
15677;SDS011;7939;50.814;6.368;2023-12-29T08:11:14;4.00;;;1.67;;
15677;SDS011;7939;50.814;6.368;2023-12-29T08:13:42;3.22;;;1.35;;
15677;SDS011;7939;50.814;6.368;2023-12-29T08:16:10;5.30;;;1.15;;
15677;SDS011;7939;50.814;6.368;2023-12-29T08:18:37;4.03;;;1.30;;
15677;SDS011;7939;50.814;6.368;2023-12-29T08:21:03;4.75;;;1.40;;
15677;SDS011;7939;50.814;6.368;2023-12-29T08:23:32;3.47;;;1.73;;
15677;SDS011;7939;50.814;6.368;2023-12-29T08:25:58;3.42;;;1.48;;
15677;SDS011;7939;50.814;6.368;2023-12-29T08:28:25;1.65;;;1.40;;
15677;SDS011;7939;50.814;6.368;2023-12-29T08:30:52;6.10;;;1.60;;
15677;SDS011;7939;50.814;6.368;2023-12-29T08:33:19;7.47;;;1.60;;
15677;SDS011;7939;50.814;6.368;2023-12-29T08:35:45;5.65;;;1.42;;
15677;SDS011;7939;50.814;6.368;2023-12-29T08:38:12;3.50;;;1.30;;
15677;SDS011;7939;50.814;6.368;2023-12-29T08:40:41;5.00;;;1.40;;
15677;SDS011;7939;50.814;6.368;2023-12-29T08:43:08;4.25;;;1.50;;
15677;SDS011;7939;50.814;6.368;2023-12-29T08:45:35;4.78;;;1.50;;
15677;SDS011;7939;50.814;6.368;2023-12-29T08:48:01;2.05;;;1.30;;
15677;SDS011;7939;50.814;6.368;2023-12-29T08:50:28;7.35;;;1.55;;
15677;SDS011;7939;50.814;6.368;2023-12-29T08:52:55;5.43;;;1.40;;
15677;SDS011;7939;50.814;6.368;2023-12-29T08:55:22;2.80;;;1.23;;
15677;SDS011;7939;50.814;6.368;2023-12-29T08:57:50;2.95;;;1.20;;
15677;SDS011;7939;50.814;6.368;2023-12-29T09:00:16;4.68;;;1.60;;
15677;SDS011;7939;50.814;6.368;2023-12-29T09:02:43;6.32;;;1.63;;
15677;SDS011;7939;50.814;6.368;2023-12-29T09:05:11;3.95;;;1.40;;
15677;SDS011;7939;50.814;6.368;2023-12-29T09:07:38;3.67;;;1.40;;
15677;SDS011;7939;50.814;6.368;2023-12-29T09:10:06;2.85;;;1.42;;
15677;SDS011;7939;50.814;6.368;2023-12-29T09:12:35;4.70;;;1.10;;
15677;SDS011;7939;50.814;6.368;2023-12-29T09:15:04;3.65;;;1.27;;
15677;SDS011;7939;50.814;6.368;2023-12-29T09:17:31;1.85;;;1.10;;
15677;SDS011;7939;50.814;6.368;2023-12-29T09:19:58;4.53;;;1.30;;
15677;SDS011;7939;50.814;6.368;2023-12-29T09:22:25;2.63;;;1.02;;
15677;SDS011;7939;50.814;6.368;2023-12-29T09:24:53;3.33;;;1.45;;
15677;SDS011;7939;50.814;6.368;2023-12-29T09:27:20;2.95;;;1.20;;
15677;SDS011;7939;50.814;6.368;2023-12-29T09:29:46;1.27;;;1.10;;
15677;SDS011;7939;50.814;6.368;2023-12-29T09:32:15;1.98;;;1.00;;
15677;SDS011;7939;50.814;6.368;2023-12-29T09:34:41;3.83;;;1.80;;
15677;SDS011;7939;50.814;6.368;2023-12-29T09:37:08;2.05;;;1.15;;
15677;SDS011;7939;50.814;6.368;2023-12-29T09:39:35;1.55;;;1.10;;
15677;SDS011;7939;50.814;6.368;2023-12-29T09:42:02;1.60;;;0.95;;
15677;SDS011;7939;50.814;6.368;2023-12-29T09:44:31;3.78;;;1.35;;
15677;SDS011;7939;50.814;6.368;2023-12-29T09:47:02;7.05;;;1.60;;
15677;SDS011;7939;50.814;6.368;2023-12-29T09:49:34;3.78;;;1.17;;
15677;SDS011;7939;50.814;6.368;2023-12-29T09:52:04;3.00;;;1.33;;
15677;SDS011;7939;50.814;6.368;2023-12-29T09:54:33;4.10;;;1.05;;
15677;SDS011;7939;50.814;6.368;2023-12-29T09:57:02;4.32;;;1.20;;
15677;SDS011;7939;50.814;6.368;2023-12-29T09:59:30;1.65;;;0.75;;
15677;SDS011;7939;50.814;6.368;2023-12-29T10:02:01;2.47;;;1.13;;
15677;SDS011;7939;50.814;6.368;2023-12-29T10:04:29;4.18;;;1.30;;
15677;SDS011;7939;50.814;6.368;2023-12-29T10:06:57;3.28;;;1.40;;
15677;SDS011;7939;50.814;6.368;2023-12-29T10:09:30;4.63;;;1.35;;
15677;SDS011;7939;50.814;6.368;2023-12-29T10:12:00;1.75;;;1.10;;
15677;SDS011;7939;50.814;6.368;2023-12-29T10:14:30;2.85;;;0.95;;
15677;SDS011;7939;50.814;6.368;2023-12-29T10:17:03;2.08;;;1.02;;
15677;SDS011;7939;50.814;6.368;2023-12-29T10:19:37;2.45;;;1.27;;
15677;SDS011;7939;50.814;6.368;2023-12-29T10:22:08;4.72;;;1.00;;
15677;SDS011;7939;50.814;6.368;2023-12-29T10:24:41;1.98;;;0.82;;
15677;SDS011;7939;50.814;6.368;2023-12-29T10:27:11;2.85;;;1.00;;
15677;SDS011;7939;50.814;6.368;2023-12-29T10:29:37;3.67;;;0.98;;
15677;SDS011;7939;50.814;6.368;2023-12-29T10:32:05;2.28;;;1.15;;
15677;SDS011;7939;50.814;6.368;2023-12-29T10:34:32;3.63;;;1.08;;
15677;SDS011;7939;50.814;6.368;2023-12-29T10:36:59;1.88;;;1.30;;
15677;SDS011;7939;50.814;6.368;2023-12-29T10:39:27;3.33;;;1.15;;
15677;SDS011;7939;50.814;6.368;2023-12-29T10:42:02;2.80;;;1.17;;
15677;SDS011;7939;50.814;6.368;2023-12-29T10:44:31;0.70;;;0.70;;
15677;SDS011;7939;50.814;6.368;2023-12-29T10:46:58;3.85;;;1.17;;
15677;SDS011;7939;50.814;6.368;2023-12-29T10:49:25;2.42;;;0.80;;
15677;SDS011;7939;50.814;6.368;2023-12-29T10:51:52;2.88;;;0.93;;
15677;SDS011;7939;50.814;6.368;2023-12-29T10:54:20;2.63;;;0.90;;
15677;SDS011;7939;50.814;6.368;2023-12-29T10:57:01;1.00;;;0.98;;
15677;SDS011;7939;50.814;6.368;2023-12-29T10:59:28;3.10;;;0.88;;
15677;SDS011;7939;50.814;6.368;2023-12-29T11:01:55;2.00;;;0.90;;
15677;SDS011;7939;50.814;6.368;2023-12-29T11:04:22;2.85;;;1.10;;
15677;SDS011;7939;50.814;6.368;2023-12-29T11:06:49;1.65;;;0.90;;
15677;SDS011;7939;50.814;6.368;2023-12-29T11:09:25;2.55;;;0.93;;
15677;SDS011;7939;50.814;6.368;2023-12-29T11:11:55;1.23;;;1.00;;
15677;SDS011;7939;50.814;6.368;2023-12-29T11:14:25;2.08;;;0.90;;
15677;SDS011;7939;50.814;6.368;2023-12-29T11:16:53;2.45;;;1.40;;
15677;SDS011;7939;50.814;6.368;2023-12-29T11:19:21;1.30;;;1.20;;
15677;SDS011;7939;50.814;6.368;2023-12-29T11:21:48;2.47;;;1.00;;
15677;SDS011;7939;50.814;6.368;2023-12-29T11:24:18;1.70;;;1.00;;
15677;SDS011;7939;50.814;6.368;2023-12-29T11:26:45;0.90;;;0.90;;
15677;SDS011;7939;50.814;6.368;2023-12-29T11:29:12;2.38;;;1.02;;
15677;SDS011;7939;50.814;6.368;2023-12-29T11:31:40;2.45;;;1.20;;
15677;SDS011;7939;50.814;6.368;2023-12-29T11:34:08;2.17;;;1.10;;
15677;SDS011;7939;50.814;6.368;2023-12-29T11:36:40;1.55;;;0.82;;
15677;SDS011;7939;50.814;6.368;2023-12-29T11:39:14;1.90;;;0.90;;
15677;SDS011;7939;50.814;6.368;2023-12-29T11:41:47;1.15;;;0.90;;
15677;SDS011;7939;50.814;6.368;2023-12-29T11:44:24;1.05;;;0.90;;
15677;SDS011;7939;50.814;6.368;2023-12-29T11:46:52;0.82;;;0.82;;
15677;SDS011;7939;50.814;6.368;2023-12-29T11:49:19;2.22;;;0.80;;
15677;SDS011;7939;50.814;6.368;2023-12-29T11:51:47;0.70;;;0.70;;
15677;SDS011;7939;50.814;6.368;2023-12-29T11:54:21;2.45;;;0.90;;
15677;SDS011;7939;50.814;6.368;2023-12-29T11:56:48;1.10;;;1.02;;
15677;SDS011;7939;50.814;6.368;2023-12-29T11:59:15;1.10;;;0.98;;
15677;SDS011;7939;50.814;6.368;2023-12-29T12:01:43;2.58;;;0.90;;
15677;SDS011;7939;50.814;6.368;2023-12-29T12:07:03;2.47;;;1.10;;
15677;SDS011;7939;50.814;6.368;2023-12-29T12:09:32;2.45;;;1.05;;
15677;SDS011;7939;50.814;6.368;2023-12-29T12:12:00;1.00;;;0.90;;
15677;SDS011;7939;50.814;6.368;2023-12-29T12:14:44;0.80;;;0.80;;
15677;SDS011;7939;50.814;6.368;2023-12-29T12:17:26;0.70;;;0.70;;
15677;SDS011;7939;50.814;6.368;2023-12-29T12:19:59;1.65;;;0.80;;
15677;SDS011;7939;50.814;6.368;2023-12-29T12:22:28;2.17;;;0.90;;
15677;SDS011;7939;50.814;6.368;2023-12-29T12:24:56;1.90;;;0.73;;
15677;SDS011;7939;50.814;6.368;2023-12-29T12:27:24;1.40;;;0.90;;
15677;SDS011;7939;50.814;6.368;2023-12-29T12:29:52;1.95;;;1.00;;
15677;SDS011;7939;50.814;6.368;2023-12-29T12:32:22;1.20;;;0.90;;
15677;SDS011;7939;50.814;6.368;2023-12-29T12:34:48;1.10;;;0.90;;
15677;SDS011;7939;50.814;6.368;2023-12-29T12:37:19;2.20;;;1.15;;
15677;SDS011;7939;50.814;6.368;2023-12-29T12:39:46;1.15;;;0.90;;
15677;SDS011;7939;50.814;6.368;2023-12-29T12:42:13;2.15;;;0.85;;
15677;SDS011;7939;50.814;6.368;2023-12-29T12:44:41;2.90;;;0.90;;
15677;SDS011;7939;50.814;6.368;2023-12-29T12:47:15;1.90;;;0.80;;
15677;SDS011;7939;50.814;6.368;2023-12-29T12:49:43;1.67;;;0.88;;
15677;SDS011;7939;50.814;6.368;2023-12-29T12:52:10;1.02;;;0.70;;
15677;SDS011;7939;50.814;6.368;2023-12-29T12:54:38;1.55;;;1.05;;
15677;SDS011;7939;50.814;6.368;2023-12-29T12:57:05;1.58;;;0.90;;
15677;SDS011;7939;50.814;6.368;2023-12-29T12:59:31;2.13;;;0.80;;
15677;SDS011;7939;50.814;6.368;2023-12-29T13:01:58;1.05;;;0.90;;
15677;SDS011;7939;50.814;6.368;2023-12-29T13:04:25;0.88;;;0.88;;
15677;SDS011;7939;50.814;6.368;2023-12-29T13:06:52;4.53;;;0.98;;
15677;SDS011;7939;50.814;6.368;2023-12-29T13:09:19;1.42;;;1.00;;
15677;SDS011;7939;50.814;6.368;2023-12-29T13:11:47;0.85;;;0.75;;
15677;SDS011;7939;50.814;6.368;2023-12-29T13:14:20;1.50;;;1.40;;
15677;SDS011;7939;50.814;6.368;2023-12-29T13:16:47;1.83;;;0.77;;
15677;SDS011;7939;50.814;6.368;2023-12-29T13:19:15;1.65;;;1.10;;
15677;SDS011;7939;50.814;6.368;2023-12-29T13:21:47;1.70;;;1.05;;
15677;SDS011;7939;50.814;6.368;2023-12-29T13:24:14;2.45;;;1.02;;
15677;SDS011;7939;50.814;6.368;2023-12-29T13:26:43;1.95;;;1.23;;
15677;SDS011;7939;50.814;6.368;2023-12-29T13:29:12;2.13;;;1.10;;
15677;SDS011;7939;50.814;6.368;2023-12-29T13:31:40;1.70;;;1.00;;
15677;SDS011;7939;50.814;6.368;2023-12-29T13:34:20;1.58;;;1.15;;
15677;SDS011;7939;50.814;6.368;2023-12-29T13:36:50;1.33;;;1.20;;
15677;SDS011;7939;50.814;6.368;2023-12-29T13:39:22;1.77;;;0.95;;
15677;SDS011;7939;50.814;6.368;2023-12-29T13:41:54;1.98;;;1.00;;
15677;SDS011;7939;50.814;6.368;2023-12-29T13:44:23;1.58;;;1.48;;
15677;SDS011;7939;50.814;6.368;2023-12-29T13:46:52;1.77;;;1.10;;
15677;SDS011;7939;50.814;6.368;2023-12-29T13:49:20;2.85;;;1.48;;
15677;SDS011;7939;50.814;6.368;2023-12-29T13:51:46;1.95;;;0.70;;
15677;SDS011;7939;50.814;6.368;2023-12-29T13:54:13;2.75;;;1.50;;
15677;SDS011;7939;50.814;6.368;2023-12-29T13:56:50;2.08;;;1.00;;
15677;SDS011;7939;50.814;6.368;2023-12-29T13:59:17;3.97;;;3.45;;
15677;SDS011;7939;50.814;6.368;2023-12-29T14:01:47;1.70;;;1.27;;
15677;SDS011;7939;50.814;6.368;2023-12-29T14:04:15;4.35;;;2.42;;
15677;SDS011;7939;50.814;6.368;2023-12-29T14:06:49;0.90;;;0.90;;
15677;SDS011;7939;50.814;6.368;2023-12-29T14:09:18;1.58;;;1.10;;
15677;SDS011;7939;50.814;6.368;2023-12-29T14:11:45;2.65;;;2.28;;
15677;SDS011;7939;50.814;6.368;2023-12-29T14:14:12;1.13;;;1.05;;
15677;SDS011;7939;50.814;6.368;2023-12-29T14:16:39;2.13;;;0.80;;
15677;SDS011;7939;50.814;6.368;2023-12-29T14:19:07;2.35;;;0.80;;
15677;SDS011;7939;50.814;6.368;2023-12-29T14:21:35;0.60;;;0.60;;
15677;SDS011;7939;50.814;6.368;2023-12-29T14:24:09;2.70;;;0.90;;
15677;SDS011;7939;50.814;6.368;2023-12-29T14:26:37;1.30;;;0.95;;
15677;SDS011;7939;50.814;6.368;2023-12-29T14:29:07;0.95;;;0.90;;
15677;SDS011;7939;50.814;6.368;2023-12-29T14:31:35;1.08;;;0.70;;
15677;SDS011;7939;50.814;6.368;2023-12-29T14:34:03;1.77;;;0.90;;
15677;SDS011;7939;50.814;6.368;2023-12-29T14:36:32;1.60;;;0.85;;
15677;SDS011;7939;50.814;6.368;2023-12-29T14:38:59;1.77;;;0.77;;
15677;SDS011;7939;50.814;6.368;2023-12-29T14:41:26;0.80;;;0.80;;
15677;SDS011;7939;50.814;6.368;2023-12-29T14:43:53;0.70;;;0.70;;
15677;SDS011;7939;50.814;6.368;2023-12-29T14:46:20;0.95;;;0.80;;
15677;SDS011;7939;50.814;6.368;2023-12-29T14:48:47;0.85;;;0.80;;
15677;SDS011;7939;50.814;6.368;2023-12-29T14:51:14;0.68;;;0.68;;
15677;SDS011;7939;50.814;6.368;2023-12-29T14:53:44;1.40;;;1.13;;
15677;SDS011;7939;50.814;6.368;2023-12-29T14:56:11;1.20;;;1.10;;
15677;SDS011;7939;50.814;6.368;2023-12-29T14:58:39;3.10;;;2.13;;
15677;SDS011;7939;50.814;6.368;2023-12-29T15:01:06;3.38;;;2.40;;
15677;SDS011;7939;50.814;6.368;2023-12-29T15:03:33;1.55;;;1.20;;
15677;SDS011;7939;50.814;6.368;2023-12-29T15:06:00;1.75;;;1.15;;